sensor_id;sensor_type;location;lat;lon;timestamp;temperature;humidity
69084;SHT31;56185;48.526;9.044;2023-01-23T00:02:15;1.36;84.02
69084;SHT31;56185;48.526;9.044;2023-01-23T00:04:41;1.16;84.35
69084;SHT31;56185;48.526;9.044;2023-01-23T00:07:06;1.17;84.59
69084;SHT31;56185;48.526;9.044;2023-01-23T00:09:31;1.15;84.67
69084;SHT31;56185;48.526;9.044;2023-01-23T00:11:57;1.23;84.54
69084;SHT31;56185;48.526;9.044;2023-01-23T00:14:22;1.26;84.51
69084;SHT31;56185;48.526;9.044;2023-01-23T00:16:47;1.24;84.44
69084;SHT31;56185;48.526;9.044;2023-01-23T00:19:12;1.16;84.48
69084;SHT31;56185;48.526;9.044;2023-01-23T00:21:38;1.28;84.51
69084;SHT31;56185;48.526;9.044;2023-01-23T00:24:03;1.41;84.15
69084;SHT31;56185;48.526;9.044;2023-01-23T00:26:31;1.38;84.04
69084;SHT31;56185;48.526;9.044;2023-01-23T00:28:56;1.36;84.06
69084;SHT31;56185;48.526;9.044;2023-01-23T00:31:24;1.26;84.31
69084;SHT31;56185;48.526;9.044;2023-01-23T00:33:54;1.23;84.56
69084;SHT31;56185;48.526;9.044;2023-01-23T00:36:19;1.36;84.34
69084;SHT31;56185;48.526;9.044;2023-01-23T00:38:45;1.33;84.13
69084;SHT31;56185;48.526;9.044;2023-01-23T00:41:10;1.40;83.67
69084;SHT31;56185;48.526;9.044;2023-01-23T00:43:35;1.27;83.90
69084;SHT31;56185;48.526;9.044;2023-01-23T00:46:00;1.31;83.98
69084;SHT31;56185;48.526;9.044;2023-01-23T00:48:26;1.36;84.04
69084;SHT31;56185;48.526;9.044;2023-01-23T00:50:51;1.36;83.67
69084;SHT31;56185;48.526;9.044;2023-01-23T00:53:17;1.31;84.30
69084;SHT31;56185;48.526;9.044;2023-01-23T00:55:42;1.36;83.83
69084;SHT31;56185;48.526;9.044;2023-01-23T00:58:08;1.36;83.96
69084;SHT31;56185;48.526;9.044;2023-01-23T01:00:37;1.28;84.23
69084;SHT31;56185;48.526;9.044;2023-01-23T01:03:03;1.28;83.82
69084;SHT31;56185;48.526;9.044;2023-01-23T01:05:28;1.33;83.84
69084;SHT31;56185;48.526;9.044;2023-01-23T01:07:53;1.40;83.84
69084;SHT31;56185;48.526;9.044;2023-01-23T01:10:19;1.24;83.87
69084;SHT31;56185;48.526;9.044;2023-01-23T01:12:44;1.16;84.44
69084;SHT31;56185;48.526;9.044;2023-01-23T01:15:09;1.20;84.19
69084;SHT31;56185;48.526;9.044;2023-01-23T01:17:35;1.27;84.04
69084;SHT31;56185;48.526;9.044;2023-01-23T01:20:01;1.17;84.20
69084;SHT31;56185;48.526;9.044;2023-01-23T01:22:27;1.17;84.15
69084;SHT31;56185;48.526;9.044;2023-01-23T01:24:52;1.19;83.75
69084;SHT31;56185;48.526;9.044;2023-01-23T01:27:17;1.16;83.72
69084;SHT31;56185;48.526;9.044;2023-01-23T01:29:42;1.15;84.15
69084;SHT31;56185;48.526;9.044;2023-01-23T01:32:08;1.19;84.21
69084;SHT31;56185;48.526;9.044;2023-01-23T01:34:33;1.01;84.70
69084;SHT31;56185;48.526;9.044;2023-01-23T01:36:59;1.15;84.73
69084;SHT31;56185;48.526;9.044;2023-01-23T01:39:24;0.96;84.87
69084;SHT31;56185;48.526;9.044;2023-01-23T01:41:49;1.07;84.87
69084;SHT31;56185;48.526;9.044;2023-01-23T01:44:24;1.07;84.61
69084;SHT31;56185;48.526;9.044;2023-01-23T01:46:49;1.07;84.65
69084;SHT31;56185;48.526;9.044;2023-01-23T01:49:24;1.00;84.53
69084;SHT31;56185;48.526;9.044;2023-01-23T01:52:00;1.00;85.05
69084;SHT31;56185;48.526;9.044;2023-01-23T01:57:10;1.17;85.02
69084;SHT31;56185;48.526;9.044;2023-01-23T02:00:14;1.12;85.01
69084;SHT31;56185;48.526;9.044;2023-01-23T02:05:18;0.87;85.24
69084;SHT31;56185;48.526;9.044;2023-01-23T02:07:51;0.99;85.57
69084;SHT31;56185;48.526;9.044;2023-01-23T02:10:17;1.03;85.21
69084;SHT31;56185;48.526;9.044;2023-01-23T02:12:47;1.10;85.03
69084;SHT31;56185;48.526;9.044;2023-01-23T02:15:13;1.15;84.70
69084;SHT31;56185;48.526;9.044;2023-01-23T02:17:39;1.06;85.40
69084;SHT31;56185;48.526;9.044;2023-01-23T02:20:25;1.16;84.84
69084;SHT31;56185;48.526;9.044;2023-01-23T02:23:04;1.22;84.73
69084;SHT31;56185;48.526;9.044;2023-01-23T02:25:47;1.22;84.89
69084;SHT31;56185;48.526;9.044;2023-01-23T02:28:15;1.27;84.31
69084;SHT31;56185;48.526;9.044;2023-01-23T02:30:42;1.22;84.60
69084;SHT31;56185;48.526;9.044;2023-01-23T02:33:41;1.09;85.54
69084;SHT31;56185;48.526;9.044;2023-01-23T02:36:00;1.12;84.47
69084;SHT31;56185;48.526;9.044;2023-01-23T02:38:29;1.16;84.67
69084;SHT31;56185;48.526;9.044;2023-01-23T02:40:56;1.15;84.80
69084;SHT31;56185;48.526;9.044;2023-01-23T02:43:25;1.07;84.93
69084;SHT31;56185;48.526;9.044;2023-01-23T02:45:54;1.07;85.14
69084;SHT31;56185;48.526;9.044;2023-01-23T02:48:20;1.10;85.12
69084;SHT31;56185;48.526;9.044;2023-01-23T02:50:45;1.20;84.45
69084;SHT31;56185;48.526;9.044;2023-01-23T02:53:11;1.23;84.23
69084;SHT31;56185;48.526;9.044;2023-01-23T02:55:37;1.24;84.64
69084;SHT31;56185;48.526;9.044;2023-01-23T02:58:02;1.20;84.46
69084;SHT31;56185;48.526;9.044;2023-01-23T03:00:27;1.16;84.36
69084;SHT31;56185;48.526;9.044;2023-01-23T03:02:52;1.16;84.45
69084;SHT31;56185;48.526;9.044;2023-01-23T03:05:18;1.12;85.13
69084;SHT31;56185;48.526;9.044;2023-01-23T03:07:43;1.19;84.57
69084;SHT31;56185;48.526;9.044;2023-01-23T03:10:10;1.13;84.35
69084;SHT31;56185;48.526;9.044;2023-01-23T03:12:36;1.10;84.29
69084;SHT31;56185;48.526;9.044;2023-01-23T03:15:01;1.13;84.78
69084;SHT31;56185;48.526;9.044;2023-01-23T03:17:27;1.07;85.14
69084;SHT31;56185;48.526;9.044;2023-01-23T03:19:52;1.12;85.10
69084;SHT31;56185;48.526;9.044;2023-01-23T03:22:17;1.19;84.75
69084;SHT31;56185;48.526;9.044;2023-01-23T03:24:42;1.24;84.28
69084;SHT31;56185;48.526;9.044;2023-01-23T03:27:07;1.30;84.08
69084;SHT31;56185;48.526;9.044;2023-01-23T03:29:34;1.15;84.36
69084;SHT31;56185;48.526;9.044;2023-01-23T03:31:59;1.22;83.89
69084;SHT31;56185;48.526;9.044;2023-01-23T03:34:25;1.19;83.87
69084;SHT31;56185;48.526;9.044;2023-01-23T03:36:50;1.13;83.96
69084;SHT31;56185;48.526;9.044;2023-01-23T03:39:15;0.96;84.49
69084;SHT31;56185;48.526;9.044;2023-01-23T03:44:44;1.06;84.76
69084;SHT31;56185;48.526;9.044;2023-01-23T03:47:09;1.12;84.29
69084;SHT31;56185;48.526;9.044;2023-01-23T03:49:35;1.17;84.44
69084;SHT31;56185;48.526;9.044;2023-01-23T03:52:00;1.13;84.38
69084;SHT31;56185;48.526;9.044;2023-01-23T03:54:26;1.09;84.99
69084;SHT31;56185;48.526;9.044;2023-01-23T03:56:51;1.16;84.53
69084;SHT31;56185;48.526;9.044;2023-01-23T03:59:17;1.10;85.22
69084;SHT31;56185;48.526;9.044;2023-01-23T04:01:43;1.15;84.49
69084;SHT31;56185;48.526;9.044;2023-01-23T04:04:08;1.28;84.19
69084;SHT31;56185;48.526;9.044;2023-01-23T04:06:33;1.17;84.43
69084;SHT31;56185;48.526;9.044;2023-01-23T04:08:59;1.07;84.89
69084;SHT31;56185;48.526;9.044;2023-01-23T04:11:25;1.04;85.07
69084;SHT31;56185;48.526;9.044;2023-01-23T04:13:50;1.01;85.00
69084;SHT31;56185;48.526;9.044;2023-01-23T04:16:15;1.13;85.02
69084;SHT31;56185;48.526;9.044;2023-01-23T04:18:41;1.09;84.91
69084;SHT31;56185;48.526;9.044;2023-01-23T04:21:06;1.24;84.54
69084;SHT31;56185;48.526;9.044;2023-01-23T04:23:31;1.13;84.45
69084;SHT31;56185;48.526;9.044;2023-01-23T04:25:57;1.17;84.91
69084;SHT31;56185;48.526;9.044;2023-01-23T04:28:22;1.13;84.60
69084;SHT31;56185;48.526;9.044;2023-01-23T04:30:49;1.13;84.84
69084;SHT31;56185;48.526;9.044;2023-01-23T04:33:15;1.12;84.68
69084;SHT31;56185;48.526;9.044;2023-01-23T04:35:54;1.30;84.41
69084;SHT31;56185;48.526;9.044;2023-01-23T04:38:22;1.20;84.52
69084;SHT31;56185;48.526;9.044;2023-01-23T04:40:48;1.15;84.53
69084;SHT31;56185;48.526;9.044;2023-01-23T04:43:14;1.10;84.74
69084;SHT31;56185;48.526;9.044;2023-01-23T04:45:39;1.12;84.40
69084;SHT31;56185;48.526;9.044;2023-01-23T04:48:04;1.23;84.12
69084;SHT31;56185;48.526;9.044;2023-01-23T04:50:31;1.16;84.83
69084;SHT31;56185;48.526;9.044;2023-01-23T04:52:56;1.24;84.36
69084;SHT31;56185;48.526;9.044;2023-01-23T04:55:22;1.22;84.03
69084;SHT31;56185;48.526;9.044;2023-01-23T04:57:47;1.20;84.13
69084;SHT31;56185;48.526;9.044;2023-01-23T05:00:12;1.16;84.64
69084;SHT31;56185;48.526;9.044;2023-01-23T05:02:38;1.13;84.78
69084;SHT31;56185;48.526;9.044;2023-01-23T05:05:03;1.07;84.42
69084;SHT31;56185;48.526;9.044;2023-01-23T05:07:29;1.01;84.86
69084;SHT31;56185;48.526;9.044;2023-01-23T05:09:54;1.10;84.85
69084;SHT31;56185;48.526;9.044;2023-01-23T05:12:19;1.12;84.52
69084;SHT31;56185;48.526;9.044;2023-01-23T05:14:44;1.03;85.18
69084;SHT31;56185;48.526;9.044;2023-01-23T05:17:10;1.04;85.09
69084;SHT31;56185;48.526;9.044;2023-01-23T05:19:35;1.09;84.87
69084;SHT31;56185;48.526;9.044;2023-01-23T05:22:00;1.00;85.14
69084;SHT31;56185;48.526;9.044;2023-01-23T05:24:25;1.09;84.81
69084;SHT31;56185;48.526;9.044;2023-01-23T05:26:51;0.99;85.13
69084;SHT31;56185;48.526;9.044;2023-01-23T05:29:16;0.99;84.82
69084;SHT31;56185;48.526;9.044;2023-01-23T05:31:41;0.99;84.80
69084;SHT31;56185;48.526;9.044;2023-01-23T05:34:07;0.89;85.22
69084;SHT31;56185;48.526;9.044;2023-01-23T05:36:32;1.00;85.54
69084;SHT31;56185;48.526;9.044;2023-01-23T05:38:57;0.97;84.93
69084;SHT31;56185;48.526;9.044;2023-01-23T05:41:22;0.92;85.43
69084;SHT31;56185;48.526;9.044;2023-01-23T05:43:48;1.01;84.84
69084;SHT31;56185;48.526;9.044;2023-01-23T05:46:13;1.01;84.39
69084;SHT31;56185;48.526;9.044;2023-01-23T05:48:38;1.00;84.61
69084;SHT31;56185;48.526;9.044;2023-01-23T05:51:04;1.04;84.71
69084;SHT31;56185;48.526;9.044;2023-01-23T05:53:29;0.78;85.45
69084;SHT31;56185;48.526;9.044;2023-01-23T05:55:54;0.90;85.33
69084;SHT31;56185;48.526;9.044;2023-01-23T05:58:21;1.06;84.47
69084;SHT31;56185;48.526;9.044;2023-01-23T06:00:46;1.06;84.46
69084;SHT31;56185;48.526;9.044;2023-01-23T06:03:11;1.12;84.37
69084;SHT31;56185;48.526;9.044;2023-01-23T06:05:36;1.12;84.39
69084;SHT31;56185;48.526;9.044;2023-01-23T06:08:02;1.09;84.47
69084;SHT31;56185;48.526;9.044;2023-01-23T06:10:27;1.09;84.40
69084;SHT31;56185;48.526;9.044;2023-01-23T06:12:52;1.20;84.24
69084;SHT31;56185;48.526;9.044;2023-01-23T06:15:18;1.12;84.53
69084;SHT31;56185;48.526;9.044;2023-01-23T06:17:43;1.07;84.50
69084;SHT31;56185;48.526;9.044;2023-01-23T06:20:09;1.22;84.07
69084;SHT31;56185;48.526;9.044;2023-01-23T06:22:34;1.19;84.12
69084;SHT31;56185;48.526;9.044;2023-01-23T06:24:59;1.03;84.36
69084;SHT31;56185;48.526;9.044;2023-01-23T06:27:25;1.12;84.20
69084;SHT31;56185;48.526;9.044;2023-01-23T06:29:50;1.04;84.49
69084;SHT31;56185;48.526;9.044;2023-01-23T06:32:15;1.09;84.37
69084;SHT31;56185;48.526;9.044;2023-01-23T06:34:40;1.10;84.07
69084;SHT31;56185;48.526;9.044;2023-01-23T06:37:06;1.15;84.21
69084;SHT31;56185;48.526;9.044;2023-01-23T06:39:31;0.99;84.67
69084;SHT31;56185;48.526;9.044;2023-01-23T06:41:56;0.99;84.54
69084;SHT31;56185;48.526;9.044;2023-01-23T06:44:22;1.04;84.09
69084;SHT31;56185;48.526;9.044;2023-01-23T06:46:47;0.99;84.32
69084;SHT31;56185;48.526;9.044;2023-01-23T06:49:13;0.99;84.62
69084;SHT31;56185;48.526;9.044;2023-01-23T06:51:39;0.96;84.74
69084;SHT31;56185;48.526;9.044;2023-01-23T06:54:04;0.92;85.00
69084;SHT31;56185;48.526;9.044;2023-01-23T06:56:30;0.92;85.03
69084;SHT31;56185;48.526;9.044;2023-01-23T06:58:55;0.92;85.28
69084;SHT31;56185;48.526;9.044;2023-01-23T07:01:20;0.93;85.07
69084;SHT31;56185;48.526;9.044;2023-01-23T07:03:46;1.01;84.47
69084;SHT31;56185;48.526;9.044;2023-01-23T07:06:12;1.01;84.61
69084;SHT31;56185;48.526;9.044;2023-01-23T07:08:38;1.06;84.51
69084;SHT31;56185;48.526;9.044;2023-01-23T07:11:04;0.92;84.90
69084;SHT31;56185;48.526;9.044;2023-01-23T07:13:29;1.01;84.78
69084;SHT31;56185;48.526;9.044;2023-01-23T07:15:54;0.96;84.96
69084;SHT31;56185;48.526;9.044;2023-01-23T07:18:20;0.90;84.84
69084;SHT31;56185;48.526;9.044;2023-01-23T07:20:46;0.93;85.03
69084;SHT31;56185;48.526;9.044;2023-01-23T07:23:12;0.92;85.24
69084;SHT31;56185;48.526;9.044;2023-01-23T07:25:38;0.90;85.18
69084;SHT31;56185;48.526;9.044;2023-01-23T07:28:04;0.83;85.66
69084;SHT31;56185;48.526;9.044;2023-01-23T07:30:30;0.89;85.33
69084;SHT31;56185;48.526;9.044;2023-01-23T07:32:55;0.85;85.16
69084;SHT31;56185;48.526;9.044;2023-01-23T07:35:20;0.93;84.83
69084;SHT31;56185;48.526;9.044;2023-01-23T07:37:46;0.80;85.24
69084;SHT31;56185;48.526;9.044;2023-01-23T07:40:14;0.80;84.86
69084;SHT31;56185;48.526;9.044;2023-01-23T07:42:39;0.79;85.22
69084;SHT31;56185;48.526;9.044;2023-01-23T07:45:25;0.78;84.95
69084;SHT31;56185;48.526;9.044;2023-01-23T07:47:59;0.72;85.15
69084;SHT31;56185;48.526;9.044;2023-01-23T07:50:40;0.85;85.14
69084;SHT31;56185;48.526;9.044;2023-01-23T07:53:18;0.78;84.70
69084;SHT31;56185;48.526;9.044;2023-01-23T07:55:49;0.76;84.93
69084;SHT31;56185;48.526;9.044;2023-01-23T07:58:16;0.80;85.06
69084;SHT31;56185;48.526;9.044;2023-01-23T08:00:42;0.78;85.13
69084;SHT31;56185;48.526;9.044;2023-01-23T08:03:08;0.87;84.41
69084;SHT31;56185;48.526;9.044;2023-01-23T08:05:41;0.89;84.05
69084;SHT31;56185;48.526;9.044;2023-01-23T08:08:11;0.83;84.40
69084;SHT31;56185;48.526;9.044;2023-01-23T08:10:37;0.86;83.40
69084;SHT31;56185;48.526;9.044;2023-01-23T08:13:02;0.93;83.57
69084;SHT31;56185;48.526;9.044;2023-01-23T08:15:28;0.96;83.56
69084;SHT31;56185;48.526;9.044;2023-01-23T08:17:53;0.80;82.70
69084;SHT31;56185;48.526;9.044;2023-01-23T08:20:18;0.87;83.32
69084;SHT31;56185;48.526;9.044;2023-01-23T08:22:45;0.86;82.57
69084;SHT31;56185;48.526;9.044;2023-01-23T08:25:11;0.89;82.47
69084;SHT31;56185;48.526;9.044;2023-01-23T08:27:36;0.75;83.12
69084;SHT31;56185;48.526;9.044;2023-01-23T08:30:04;0.83;82.44
69084;SHT31;56185;48.526;9.044;2023-01-23T08:32:29;0.90;82.28
69084;SHT31;56185;48.526;9.044;2023-01-23T08:34:55;0.92;82.47
69084;SHT31;56185;48.526;9.044;2023-01-23T08:37:20;0.99;82.92
69084;SHT31;56185;48.526;9.044;2023-01-23T08:39:45;1.01;82.16
69084;SHT31;56185;48.526;9.044;2023-01-23T08:42:10;1.06;82.79
69084;SHT31;56185;48.526;9.044;2023-01-23T08:44:36;1.15;82.09
69084;SHT31;56185;48.526;9.044;2023-01-23T08:47:02;1.13;82.17
69084;SHT31;56185;48.526;9.044;2023-01-23T08:49:27;1.19;81.74
69084;SHT31;56185;48.526;9.044;2023-01-23T08:51:53;1.27;82.21
69084;SHT31;56185;48.526;9.044;2023-01-23T08:54:18;1.34;81.77
69084;SHT31;56185;48.526;9.044;2023-01-23T08:56:43;1.06;82.04
69084;SHT31;56185;48.526;9.044;2023-01-23T08:59:09;1.23;82.76
69084;SHT31;56185;48.526;9.044;2023-01-23T09:01:34;1.40;82.38
69084;SHT31;56185;48.526;9.044;2023-01-23T09:03:59;1.51;82.05
69084;SHT31;56185;48.526;9.044;2023-01-23T09:06:24;1.50;81.75
69084;SHT31;56185;48.526;9.044;2023-01-23T09:08:50;1.40;82.58
69084;SHT31;56185;48.526;9.044;2023-01-23T09:11:16;1.54;81.95
69084;SHT31;56185;48.526;9.044;2023-01-23T09:13:45;1.54;81.85
69084;SHT31;56185;48.526;9.044;2023-01-23T09:16:11;1.47;81.86
69084;SHT31;56185;48.526;9.044;2023-01-23T09:18:38;1.47;82.30
69084;SHT31;56185;48.526;9.044;2023-01-23T09:21:07;1.55;81.73
69084;SHT31;56185;48.526;9.044;2023-01-23T09:23:33;1.51;82.14
69084;SHT31;56185;48.526;9.044;2023-01-23T09:26:07;1.52;82.31
69084;SHT31;56185;48.526;9.044;2023-01-23T09:28:34;1.44;82.37
69084;SHT31;56185;48.526;9.044;2023-01-23T09:31:05;1.48;82.34
69084;SHT31;56185;48.526;9.044;2023-01-23T09:33:30;1.33;82.51
69084;SHT31;56185;48.526;9.044;2023-01-23T09:35:56;1.22;83.61
69084;SHT31;56185;48.526;9.044;2023-01-23T09:38:21;1.33;83.60
69084;SHT31;56185;48.526;9.044;2023-01-23T09:40:51;1.34;82.61
69084;SHT31;56185;48.526;9.044;2023-01-23T09:44:18;1.43;83.00
69084;SHT31;56185;48.526;9.044;2023-01-23T09:49:37;1.36;82.66
69084;SHT31;56185;48.526;9.044;2023-01-23T09:52:14;1.33;82.41
69084;SHT31;56185;48.526;9.044;2023-01-23T09:59:45;1.41;82.40
69084;SHT31;56185;48.526;9.044;2023-01-23T10:02:16;1.33;82.38
69084;SHT31;56185;48.526;9.044;2023-01-23T10:04:41;1.24;82.10
69084;SHT31;56185;48.526;9.044;2023-01-23T10:07:37;1.24;82.20
69084;SHT31;56185;48.526;9.044;2023-01-23T10:13:13;1.47;81.77
69084;SHT31;56185;48.526;9.044;2023-01-23T10:18:32;1.62;81.44
69084;SHT31;56185;48.526;9.044;2023-01-23T10:21:13;1.69;81.02
69084;SHT31;56185;48.526;9.044;2023-01-23T10:24:14;1.67;80.55
69084;SHT31;56185;48.526;9.044;2023-01-23T10:26:45;1.74;79.76
69084;SHT31;56185;48.526;9.044;2023-01-23T10:29:24;1.61;80.05
69084;SHT31;56185;48.526;9.044;2023-01-23T10:31:54;1.58;80.14
69084;SHT31;56185;48.526;9.044;2023-01-23T10:34:34;1.55;79.95
69084;SHT31;56185;48.526;9.044;2023-01-23T10:37:17;1.59;79.82
69084;SHT31;56185;48.526;9.044;2023-01-23T10:39:52;1.68;80.46
69084;SHT31;56185;48.526;9.044;2023-01-23T10:42:24;1.71;78.78
69084;SHT31;56185;48.526;9.044;2023-01-23T10:44:52;1.71;79.70
69084;SHT31;56185;48.526;9.044;2023-01-23T10:47:40;1.72;79.46
69084;SHT31;56185;48.526;9.044;2023-01-23T10:50:06;1.69;78.71
69084;SHT31;56185;48.526;9.044;2023-01-23T10:52:45;1.74;79.47
69084;SHT31;56185;48.526;9.044;2023-01-23T10:57:54;1.67;78.85
69084;SHT31;56185;48.526;9.044;2023-01-23T11:05:59;1.59;79.49
69084;SHT31;56185;48.526;9.044;2023-01-23T11:08:35;1.59;79.73
69084;SHT31;56185;48.526;9.044;2023-01-23T11:13:40;1.59;79.58
69084;SHT31;56185;48.526;9.044;2023-01-23T11:16:11;1.71;78.93
69084;SHT31;56185;48.526;9.044;2023-01-23T11:18:39;1.75;79.19
69084;SHT31;56185;48.526;9.044;2023-01-23T11:21:05;1.74;79.58
69084;SHT31;56185;48.526;9.044;2023-01-23T11:23:32;1.89;78.45
69084;SHT31;56185;48.526;9.044;2023-01-23T11:25:58;1.81;78.56
69084;SHT31;56185;48.526;9.044;2023-01-23T11:29:08;1.71;79.47
69084;SHT31;56185;48.526;9.044;2023-01-23T11:31:18;1.76;78.22
69084;SHT31;56185;48.526;9.044;2023-01-23T11:34:11;1.76;79.08
69084;SHT31;56185;48.526;9.044;2023-01-23T11:39:34;1.76;79.01
69084;SHT31;56185;48.526;9.044;2023-01-23T11:42:01;1.74;79.75
69084;SHT31;56185;48.526;9.044;2023-01-23T11:44:28;1.72;80.11
69084;SHT31;56185;48.526;9.044;2023-01-23T11:57:58;1.62;79.62
69084;SHT31;56185;48.526;9.044;2023-01-23T12:11:16;1.94;79.87
69084;SHT31;56185;48.526;9.044;2023-01-23T12:13:55;1.96;79.35
69084;SHT31;56185;48.526;9.044;2023-01-23T12:22:12;2.16;79.48
69084;SHT31;56185;48.526;9.044;2023-01-23T12:27:43;2.32;79.25
69084;SHT31;56185;48.526;9.044;2023-01-23T12:33:18;2.30;78.26
69084;SHT31;56185;48.526;9.044;2023-01-23T12:41:30;2.47;78.51
69084;SHT31;56185;48.526;9.044;2023-01-23T12:44:01;2.43;78.80
69084;SHT31;56185;48.526;9.044;2023-01-23T12:51:50;2.41;78.70
69084;SHT31;56185;48.526;9.044;2023-01-23T12:54:39;2.43;78.78
69084;SHT31;56185;48.526;9.044;2023-01-23T12:57:07;2.46;79.64
69084;SHT31;56185;48.526;9.044;2023-01-23T12:59:56;2.43;78.79
69084;SHT31;56185;48.526;9.044;2023-01-23T13:02:54;2.43;78.64
69084;SHT31;56185;48.526;9.044;2023-01-23T13:05:33;2.30;78.81
69084;SHT31;56185;48.526;9.044;2023-01-23T13:08:09;2.30;79.46
69084;SHT31;56185;48.526;9.044;2023-01-23T13:10:45;2.36;79.18
69084;SHT31;56185;48.526;9.044;2023-01-23T13:13:15;2.32;79.95
69084;SHT31;56185;48.526;9.044;2023-01-23T13:15:40;2.30;79.03
69084;SHT31;56185;48.526;9.044;2023-01-23T13:18:21;2.30;79.19
69084;SHT31;56185;48.526;9.044;2023-01-23T13:20:56;2.22;80.14
69084;SHT31;56185;48.526;9.044;2023-01-23T13:28:48;2.29;79.64
69084;SHT31;56185;48.526;9.044;2023-01-23T13:31:37;2.22;79.61
69084;SHT31;56185;48.526;9.044;2023-01-23T13:36:41;2.10;79.68
69084;SHT31;56185;48.526;9.044;2023-01-23T13:41:44;2.29;80.05
69084;SHT31;56185;48.526;9.044;2023-01-23T13:44:23;2.37;79.14
69084;SHT31;56185;48.526;9.044;2023-01-23T13:52:00;2.43;79.50
69084;SHT31;56185;48.526;9.044;2023-01-23T13:54:28;2.38;79.84
69084;SHT31;56185;48.526;9.044;2023-01-23T13:56:54;2.47;80.32
69084;SHT31;56185;48.526;9.044;2023-01-23T14:05:15;2.43;79.59
69084;SHT31;56185;48.526;9.044;2023-01-23T14:07:45;2.48;80.96
69084;SHT31;56185;48.526;9.044;2023-01-23T14:10:46;2.50;80.05
69084;SHT31;56185;48.526;9.044;2023-01-23T14:13:22;2.54;79.22
69084;SHT31;56185;48.526;9.044;2023-01-23T14:15:52;2.58;79.11
69084;SHT31;56185;48.526;9.044;2023-01-23T14:20:51;2.51;79.48
69084;SHT31;56185;48.526;9.044;2023-01-23T14:23:27;2.41;79.35
69084;SHT31;56185;48.526;9.044;2023-01-23T14:25:52;2.44;80.26
69084;SHT31;56185;48.526;9.044;2023-01-23T14:28:18;2.33;80.68
69084;SHT31;56185;48.526;9.044;2023-01-23T14:31:01;2.44;79.80
69084;SHT31;56185;48.526;9.044;2023-01-23T14:33:27;2.43;80.04
69084;SHT31;56185;48.526;9.044;2023-01-23T14:35:53;2.41;80.33
69084;SHT31;56185;48.526;9.044;2023-01-23T14:38:28;2.53;79.79
69084;SHT31;56185;48.526;9.044;2023-01-23T14:40:53;2.48;80.11
69084;SHT31;56185;48.526;9.044;2023-01-23T14:43:21;2.43;80.44
69084;SHT31;56185;48.526;9.044;2023-01-23T14:45:52;2.51;79.56
69084;SHT31;56185;48.526;9.044;2023-01-23T14:48:20;2.47;81.00
69084;SHT31;56185;48.526;9.044;2023-01-23T14:50:46;2.50;81.09
69084;SHT31;56185;48.526;9.044;2023-01-23T14:53:13;2.50;79.66
69084;SHT31;56185;48.526;9.044;2023-01-23T14:55:40;2.17;80.72
69084;SHT31;56185;48.526;9.044;2023-01-23T14:58:12;2.36;80.90
69084;SHT31;56185;48.526;9.044;2023-01-23T15:00:39;2.37;81.09
69084;SHT31;56185;48.526;9.044;2023-01-23T15:03:05;2.43;80.83
69084;SHT31;56185;48.526;9.044;2023-01-23T15:05:31;2.40;80.88
69084;SHT31;56185;48.526;9.044;2023-01-23T15:08:02;2.36;80.79
69084;SHT31;56185;48.526;9.044;2023-01-23T15:10:31;2.43;80.87
69084;SHT31;56185;48.526;9.044;2023-01-23T15:12:59;2.38;81.20
69084;SHT31;56185;48.526;9.044;2023-01-23T15:15:26;2.44;80.94
69084;SHT31;56185;48.526;9.044;2023-01-23T15:17:52;2.34;80.82
69084;SHT31;56185;48.526;9.044;2023-01-23T15:23:23;2.29;81.80
69084;SHT31;56185;48.526;9.044;2023-01-23T15:28:51;2.22;81.97
69084;SHT31;56185;48.526;9.044;2023-01-23T15:33:56;2.26;81.90
69084;SHT31;56185;48.526;9.044;2023-01-23T15:36:34;2.33;81.88
69084;SHT31;56185;48.526;9.044;2023-01-23T15:38:59;2.29;82.36
69084;SHT31;56185;48.526;9.044;2023-01-23T15:41:49;2.26;82.51
69084;SHT31;56185;48.526;9.044;2023-01-23T15:44:17;2.32;81.91
69084;SHT31;56185;48.526;9.044;2023-01-23T15:46:43;2.23;81.87
69084;SHT31;56185;48.526;9.044;2023-01-23T15:49:08;2.26;82.44
69084;SHT31;56185;48.526;9.044;2023-01-23T15:51:34;2.07;83.04
69084;SHT31;56185;48.526;9.044;2023-01-23T15:54:00;2.12;82.93
69084;SHT31;56185;48.526;9.044;2023-01-23T15:56:28;2.25;82.40
69084;SHT31;56185;48.526;9.044;2023-01-23T15:58:54;2.27;82.30
69084;SHT31;56185;48.526;9.044;2023-01-23T16:01:20;2.23;82.72
69084;SHT31;56185;48.526;9.044;2023-01-23T16:03:45;2.29;82.70
69084;SHT31;56185;48.526;9.044;2023-01-23T16:06:19;2.25;82.54
69084;SHT31;56185;48.526;9.044;2023-01-23T16:08:44;2.20;82.94
69084;SHT31;56185;48.526;9.044;2023-01-23T16:11:10;2.22;82.97
69084;SHT31;56185;48.526;9.044;2023-01-23T16:13:35;2.29;82.57
69084;SHT31;56185;48.526;9.044;2023-01-23T16:16:01;2.33;82.66
69084;SHT31;56185;48.526;9.044;2023-01-23T16:18:26;2.27;82.59
69084;SHT31;56185;48.526;9.044;2023-01-23T16:20:51;2.15;82.76
69084;SHT31;56185;48.526;9.044;2023-01-23T16:23:18;2.06;83.58
69084;SHT31;56185;48.526;9.044;2023-01-23T16:25:46;2.17;82.91
69084;SHT31;56185;48.526;9.044;2023-01-23T16:28:16;2.16;83.15
69084;SHT31;56185;48.526;9.044;2023-01-23T16:30:43;2.16;83.63
69084;SHT31;56185;48.526;9.044;2023-01-23T16:33:09;2.07;83.71
69084;SHT31;56185;48.526;9.044;2023-01-23T16:35:38;2.16;83.57
69084;SHT31;56185;48.526;9.044;2023-01-23T16:38:05;2.26;83.08
69084;SHT31;56185;48.526;9.044;2023-01-23T16:40:31;2.20;83.11
69084;SHT31;56185;48.526;9.044;2023-01-23T16:42:57;2.15;83.29
69084;SHT31;56185;48.526;9.044;2023-01-23T16:45:25;2.27;83.32
69084;SHT31;56185;48.526;9.044;2023-01-23T16:47:59;2.19;82.73
69084;SHT31;56185;48.526;9.044;2023-01-23T16:50:42;2.23;83.26
69084;SHT31;56185;48.526;9.044;2023-01-23T16:53:32;2.32;83.12
69084;SHT31;56185;48.526;9.044;2023-01-23T16:56:00;2.29;82.43
69084;SHT31;56185;48.526;9.044;2023-01-23T16:58:28;2.29;82.61
69084;SHT31;56185;48.526;9.044;2023-01-23T17:01:01;2.34;82.59
69084;SHT31;56185;48.526;9.044;2023-01-23T17:03:31;2.34;82.46
69084;SHT31;56185;48.526;9.044;2023-01-23T17:05:57;2.29;83.00
69084;SHT31;56185;48.526;9.044;2023-01-23T17:08:24;2.25;83.39
69084;SHT31;56185;48.526;9.044;2023-01-23T17:10:53;2.27;82.81
69084;SHT31;56185;48.526;9.044;2023-01-23T17:13:20;2.15;83.49
69084;SHT31;56185;48.526;9.044;2023-01-23T17:15:47;2.20;82.94
69084;SHT31;56185;48.526;9.044;2023-01-23T17:18:24;2.26;83.22
69084;SHT31;56185;48.526;9.044;2023-01-23T17:20:51;2.27;82.71
69084;SHT31;56185;48.526;9.044;2023-01-23T17:23:16;2.32;82.67
69084;SHT31;56185;48.526;9.044;2023-01-23T17:25:42;2.33;82.67
69084;SHT31;56185;48.526;9.044;2023-01-23T17:28:07;2.20;83.02
69084;SHT31;56185;48.526;9.044;2023-01-23T17:30:32;2.32;83.48
69084;SHT31;56185;48.526;9.044;2023-01-23T17:32:58;2.27;83.02
69084;SHT31;56185;48.526;9.044;2023-01-23T17:35:26;2.22;83.39
69084;SHT31;56185;48.526;9.044;2023-01-23T17:37:55;2.25;83.05
69084;SHT31;56185;48.526;9.044;2023-01-23T17:40:20;2.23;83.61
69084;SHT31;56185;48.526;9.044;2023-01-23T17:42:45;2.33;82.84
69084;SHT31;56185;48.526;9.044;2023-01-23T17:45:12;2.41;82.66
69084;SHT31;56185;48.526;9.044;2023-01-23T17:47:37;2.34;82.84